sensor_id;sensor_type;location;lat;lon;timestamp;pressure;altitude;pressure_sealevel;temperature;humidity
76164;BME280;64897;50.816;4.422;2023-04-26T00:01:57;101121.59;;;6.04;70.56
76164;BME280;64897;50.816;4.422;2023-04-26T00:04:45;101122.00;;;5.95;70.66
76164;BME280;64897;50.816;4.422;2023-04-26T00:07:34;101124.78;;;5.91;71.31
76164;BME280;64897;50.816;4.422;2023-04-26T00:10:22;101122.88;;;5.94;71.08
76164;BME280;64897;50.816;4.422;2023-04-26T00:13:09;101124.47;;;5.98;71.21
76164;BME280;64897;50.816;4.422;2023-04-26T00:15:56;101118.38;;;5.99;70.42
76164;BME280;64897;50.816;4.422;2023-04-26T00:18:43;101119.28;;;5.98;70.96
76164;BME280;64897;50.816;4.422;2023-04-26T00:21:31;101123.56;;;5.99;70.91
76164;BME280;64897;50.816;4.422;2023-04-26T00:24:19;101126.47;;;5.92;71.45
76164;BME280;64897;50.816;4.422;2023-04-26T00:27:06;101127.44;;;5.89;71.59
76164;BME280;64897;50.816;4.422;2023-04-26T00:29:55;101128.63;;;5.81;71.61
76164;BME280;64897;50.816;4.422;2023-04-26T00:32:42;101132.75;;;5.86;71.87
76164;BME280;64897;50.816;4.422;2023-04-26T00:35:29;101132.84;;;5.83;72.11
76164;BME280;64897;50.816;4.422;2023-04-26T00:38:16;101130.34;;;5.82;72.32
76164;BME280;64897;50.816;4.422;2023-04-26T00:41:05;101135.69;;;5.77;72.15
76164;BME280;64897;50.816;4.422;2023-04-26T00:43:52;101129.09;;;5.70;72.89
76164;BME280;64897;50.816;4.422;2023-04-26T00:46:39;101135.19;;;5.69;72.68
76164;BME280;64897;50.816;4.422;2023-04-26T00:49:26;101128.31;;;5.68;72.38
76164;BME280;64897;50.816;4.422;2023-04-26T00:52:14;101131.75;;;5.68;72.86
76164;BME280;64897;50.816;4.422;2023-04-26T00:55:01;101128.59;;;5.62;72.69
76164;BME280;64897;50.816;4.422;2023-04-26T00:57:49;101132.06;;;5.61;72.96
76164;BME280;64897;50.816;4.422;2023-04-26T01:00:37;101134.66;;;5.61;73.12
76164;BME280;64897;50.816;4.422;2023-04-26T01:03:24;101133.22;;;5.74;72.17
76164;BME280;64897;50.816;4.422;2023-04-26T01:06:13;101136.16;;;5.66;72.34
76164;BME280;64897;50.816;4.422;2023-04-26T01:09:02;101136.28;;;5.63;73.28
76164;BME280;64897;50.816;4.422;2023-04-26T01:11:51;101134.91;;;5.55;73.87
76164;BME280;64897;50.816;4.422;2023-04-26T01:14:42;101133.63;;;5.45;73.94
76164;BME280;64897;50.816;4.422;2023-04-26T01:17:30;101137.19;;;5.42;73.84
76164;BME280;64897;50.816;4.422;2023-04-26T01:20:17;101136.72;;;5.53;73.66
76164;BME280;64897;50.816;4.422;2023-04-26T01:23:06;101134.44;;;5.45;74.14
76164;BME280;64897;50.816;4.422;2023-04-26T01:25:53;101131.91;;;5.44;73.78
76164;BME280;64897;50.816;4.422;2023-04-26T01:28:40;101136.09;;;5.48;74.44
76164;BME280;64897;50.816;4.422;2023-04-26T01:31:28;101133.41;;;5.49;73.53
76164;BME280;64897;50.816;4.422;2023-04-26T01:34:17;101136.22;;;5.45;74.08
76164;BME280;64897;50.816;4.422;2023-04-26T01:37:05;101128.34;;;5.46;73.81
76164;BME280;64897;50.816;4.422;2023-04-26T01:39:53;101125.63;;;5.49;73.57
76164;BME280;64897;50.816;4.422;2023-04-26T01:42:40;101122.31;;;5.46;74.04
76164;BME280;64897;50.816;4.422;2023-04-26T01:45:27;101126.84;;;5.41;74.59
76164;BME280;64897;50.816;4.422;2023-04-26T01:48:34;101122.53;;;5.41;73.59
76164;BME280;64897;50.816;4.422;2023-04-26T01:51:21;101120.78;;;5.42;74.02
76164;BME280;64897;50.816;4.422;2023-04-26T01:54:08;101123.28;;;5.43;73.67
76164;BME280;64897;50.816;4.422;2023-04-26T01:56:57;101126.09;;;5.39;73.70
76164;BME280;64897;50.816;4.422;2023-04-26T01:59:46;101120.09;;;5.37;73.83
76164;BME280;64897;50.816;4.422;2023-04-26T02:02:33;101109.03;;;5.33;74.28
76164;BME280;64897;50.816;4.422;2023-04-26T02:05:22;101110.78;;;5.33;74.29
76164;BME280;64897;50.816;4.422;2023-04-26T02:08:09;101111.78;;;5.29;74.51
76164;BME280;64897;50.816;4.422;2023-04-26T02:10:56;101102.38;;;5.28;74.68
76164;BME280;64897;50.816;4.422;2023-04-26T02:13:44;101100.53;;;5.30;74.19
76164;BME280;64897;50.816;4.422;2023-04-26T02:16:31;101101.88;;;5.18;75.25
76164;BME280;64897;50.816;4.422;2023-04-26T02:19:18;101109.97;;;5.10;75.38
76164;BME280;64897;50.816;4.422;2023-04-26T02:22:05;101096.91;;;5.13;76.00
76164;BME280;64897;50.816;4.422;2023-04-26T02:24:53;101106.66;;;5.07;76.29
76164;BME280;64897;50.816;4.422;2023-04-26T02:27:45;101102.78;;;4.95;76.94
76164;BME280;64897;50.816;4.422;2023-04-26T02:30:34;101101.16;;;4.93;76.63
76164;BME280;64897;50.816;4.422;2023-04-26T02:33:21;101102.56;;;5.01;76.36
76164;BME280;64897;50.816;4.422;2023-04-26T02:36:08;101096.44;;;5.02;75.50
76164;BME280;64897;50.816;4.422;2023-04-26T02:38:55;101084.78;;;4.92;75.62
76164;BME280;64897;50.816;4.422;2023-04-26T02:41:43;101094.59;;;5.06;75.25
76164;BME280;64897;50.816;4.422;2023-04-26T02:44:30;101095.19;;;5.12;75.54
76164;BME280;64897;50.816;4.422;2023-04-26T02:47:19;101093.94;;;5.01;76.01
76164;BME280;64897;50.816;4.422;2023-04-26T02:50:08;101095.56;;;5.03;76.80
76164;BME280;64897;50.816;4.422;2023-04-26T02:52:56;101090.50;;;5.00;76.34
76164;BME280;64897;50.816;4.422;2023-04-26T02:55:43;101089.72;;;4.98;76.38
76164;BME280;64897;50.816;4.422;2023-04-26T02:58:30;101092.25;;;5.00;75.88
76164;BME280;64897;50.816;4.422;2023-04-26T03:01:17;101090.25;;;5.06;75.69
76164;BME280;64897;50.816;4.422;2023-04-26T03:04:05;101089.38;;;5.07;75.86
76164;BME280;64897;50.816;4.422;2023-04-26T03:06:53;101092.94;;;5.05;75.88
76164;BME280;64897;50.816;4.422;2023-04-26T03:09:40;101084.22;;;5.06;75.62
76164;BME280;64897;50.816;4.422;2023-04-26T03:12:27;101094.53;;;5.07;75.83
76164;BME280;64897;50.816;4.422;2023-04-26T03:15:14;101084.31;;;5.04;76.14
76164;BME280;64897;50.816;4.422;2023-04-26T03:18:01;101090.38;;;5.03;75.71
76164;BME280;64897;50.816;4.422;2023-04-26T03:20:50;101091.94;;;5.07;76.18
76164;BME280;64897;50.816;4.422;2023-04-26T03:23:39;101093.16;;;4.99;76.33
76164;BME280;64897;50.816;4.422;2023-04-26T03:26:26;101088.16;;;4.94;76.30
76164;BME280;64897;50.816;4.422;2023-04-26T03:29:15;101089.97;;;4.92;77.31
76164;BME280;64897;50.816;4.422;2023-04-26T03:32:03;101094.13;;;4.96;77.09
76164;BME280;64897;50.816;4.422;2023-04-26T03:34:51;101091.78;;;4.90;76.79
76164;BME280;64897;50.816;4.422;2023-04-26T03:37:39;101099.53;;;4.90;77.27
76164;BME280;64897;50.816;4.422;2023-04-26T03:40:30;101089.06;;;4.93;76.72
76164;BME280;64897;50.816;4.422;2023-04-26T03:43:17;101067.44;;;4.94;76.69
76164;BME280;64897;50.816;4.422;2023-04-26T03:46:04;101075.84;;;4.99;76.98
76164;BME280;64897;50.816;4.422;2023-04-26T03:48:51;101078.31;;;5.02;76.50
76164;BME280;64897;50.816;4.422;2023-04-26T03:51:38;101081.00;;;5.01;76.12
76164;BME280;64897;50.816;4.422;2023-04-26T03:54:26;101081.03;;;4.99;75.86
76164;BME280;64897;50.816;4.422;2023-04-26T03:57:14;101085.69;;;4.91;75.34
76164;BME280;64897;50.816;4.422;2023-04-26T04:00:01;101075.56;;;4.85;76.11
76164;BME280;64897;50.816;4.422;2023-04-26T04:02:49;101078.25;;;4.82;76.68
76164;BME280;64897;50.816;4.422;2023-04-26T04:05:43;101076.59;;;4.81;77.19
76164;BME280;64897;50.816;4.422;2023-04-26T04:08:30;101080.84;;;4.82;77.26
76164;BME280;64897;50.816;4.422;2023-04-26T04:11:18;101080.94;;;4.81;77.30
76164;BME280;64897;50.816;4.422;2023-04-26T04:14:05;101081.00;;;4.79;76.39
76164;BME280;64897;50.816;4.422;2023-04-26T04:16:53;101083.63;;;4.78;76.79
76164;BME280;64897;50.816;4.422;2023-04-26T04:19:40;101076.72;;;4.78;77.57
76164;BME280;64897;50.816;4.422;2023-04-26T04:22:27;101081.78;;;4.81;77.02
76164;BME280;64897;50.816;4.422;2023-04-26T04:25:14;101077.22;;;4.88;77.25
76164;BME280;64897;50.816;4.422;2023-04-26T04:28:03;101079.72;;;4.89;77.09
76164;BME280;64897;50.816;4.422;2023-04-26T04:30:51;101076.13;;;4.93;76.90
76164;BME280;64897;50.816;4.422;2023-04-26T04:33:38;101077.88;;;4.93;77.15
76164;BME280;64897;50.816;4.422;2023-04-26T04:36:26;101078.94;;;4.87;77.12
76164;BME280;64897;50.816;4.422;2023-04-26T04:39:13;101078.88;;;4.89;77.66
76164;BME280;64897;50.816;4.422;2023-04-26T04:42:01;101075.31;;;4.91;76.42
76164;BME280;64897;50.816;4.422;2023-04-26T04:44:49;101077.13;;;4.89;76.44
76164;BME280;64897;50.816;4.422;2023-04-26T04:47:38;101082.13;;;4.94;75.84
76164;BME280;64897;50.816;4.422;2023-04-26T04:50:25;101086.28;;;4.98;76.05
76164;BME280;64897;50.816;4.422;2023-04-26T04:53:13;101084.00;;;5.12;75.54
76164;BME280;64897;50.816;4.422;2023-04-26T04:56:00;101085.72;;;5.11;75.60
76164;BME280;64897;50.816;4.422;2023-04-26T04:58:49;101089.16;;;5.12;75.81
76164;BME280;64897;50.816;4.422;2023-04-26T05:01:39;101083.66;;;5.19;75.13
76164;BME280;64897;50.816;4.422;2023-04-26T05:04:34;101090.19;;;5.30;74.77
76164;BME280;64897;50.816;4.422;2023-04-26T05:07:21;101089.41;;;5.28;74.40
76164;BME280;64897;50.816;4.422;2023-04-26T05:10:12;101091.03;;;5.30;74.32
76164;BME280;64897;50.816;4.422;2023-04-26T05:13:00;101095.25;;;5.33;74.03
76164;BME280;64897;50.816;4.422;2023-04-26T05:15:47;101088.06;;;5.39;73.96
76164;BME280;64897;50.816;4.422;2023-04-26T05:18:35;101096.28;;;5.49;73.24
76164;BME280;64897;50.816;4.422;2023-04-26T05:21:22;101097.72;;;5.56;73.03
76164;BME280;64897;50.816;4.422;2023-04-26T05:24:10;101096.50;;;5.64;71.95
76164;BME280;64897;50.816;4.422;2023-04-26T05:26:57;101097.25;;;5.66;72.07
76164;BME280;64897;50.816;4.422;2023-04-26T05:29:54;101097.09;;;5.71;71.86
76164;BME280;64897;50.816;4.422;2023-04-26T05:33:03;101098.88;;;5.69;72.22
76164;BME280;64897;50.816;4.422;2023-04-26T05:35:55;101110.69;;;5.76;72.71
76164;BME280;64897;50.816;4.422;2023-04-26T05:38:44;101110.22;;;5.88;71.29
76164;BME280;64897;50.816;4.422;2023-04-26T05:41:30;101118.03;;;6.64;69.21
76164;BME280;64897;50.816;4.422;2023-04-26T05:44:19;101116.25;;;7.55;64.77
76164;BME280;64897;50.816;4.422;2023-04-26T05:47:06;101111.88;;;7.73;63.49
76164;BME280;64897;50.816;4.422;2023-04-26T05:49:53;101110.97;;;7.74;63.44
76164;BME280;64897;50.816;4.422;2023-04-26T05:52:42;101106.84;;;7.70;63.05
76164;BME280;64897;50.816;4.422;2023-04-26T05:55:29;101111.56;;;7.79;61.90
76164;BME280;64897;50.816;4.422;2023-04-26T05:58:16;101121.06;;;7.45;63.28
76164;BME280;64897;50.816;4.422;2023-04-26T06:01:04;101126.91;;;7.32;64.13
76164;BME280;64897;50.816;4.422;2023-04-26T06:03:53;101129.34;;;7.71;63.92
76164;BME280;64897;50.816;4.422;2023-04-26T06:06:41;101129.34;;;7.54;63.09
76164;BME280;64897;50.816;4.422;2023-04-26T06:09:32;101120.75;;;8.03;61.17
76164;BME280;64897;50.816;4.422;2023-04-26T06:12:19;101130.59;;;8.14;60.20
76164;BME280;64897;50.816;4.422;2023-04-26T06:15:07;101129.13;;;8.25;61.04
76164;BME280;64897;50.816;4.422;2023-04-26T06:17:57;101133.84;;;8.51;59.58
76164;BME280;64897;50.816;4.422;2023-04-26T06:20:45;101131.66;;;8.59;58.16
76164;BME280;64897;50.816;4.422;2023-04-26T06:23:33;101135.53;;;8.68;57.92
76164;BME280;64897;50.816;4.422;2023-04-26T06:26:22;101140.31;;;8.27;57.37
76164;BME280;64897;50.816;4.422;2023-04-26T06:29:09;101140.00;;;8.16;59.18
76164;BME280;64897;50.816;4.422;2023-04-26T06:31:56;101138.63;;;8.26;58.60
76164;BME280;64897;50.816;4.422;2023-04-26T06:34:44;101138.00;;;8.21;59.20
76164;BME280;64897;50.816;4.422;2023-04-26T06:37:31;101131.19;;;8.19;58.55
76164;BME280;64897;50.816;4.422;2023-04-26T06:40:20;101131.16;;;8.03;59.80
76164;BME280;64897;50.816;4.422;2023-04-26T06:43:08;101125.72;;;7.90;60.25
76164;BME280;64897;50.816;4.422;2023-04-26T06:46:04;101121.44;;;7.72;59.16
76164;BME280;64897;50.816;4.422;2023-04-26T06:48:52;101118.47;;;7.80;59.58
76164;BME280;64897;50.816;4.422;2023-04-26T06:51:39;101123.75;;;7.61;60.33
76164;BME280;64897;50.816;4.422;2023-04-26T06:54:29;101142.41;;;7.69;60.93
76164;BME280;64897;50.816;4.422;2023-04-26T06:57:17;101138.44;;;7.62;60.14
76164;BME280;64897;50.816;4.422;2023-04-26T07:00:06;101124.44;;;7.65;59.51
76164;BME280;64897;50.816;4.422;2023-04-26T07:02:54;101127.66;;;7.70;59.29
76164;BME280;64897;50.816;4.422;2023-04-26T07:05:41;101141.03;;;7.62;60.55
76164;BME280;64897;50.816;4.422;2023-04-26T07:08:28;101134.75;;;7.66;60.42
76164;BME280;64897;50.816;4.422;2023-04-26T07:11:15;101134.84;;;7.65;60.52
76164;BME280;64897;50.816;4.422;2023-04-26T07:14:02;101132.38;;;7.79;60.32
76164;BME280;64897;50.816;4.422;2023-04-26T07:16:51;101135.91;;;7.78;59.45
76164;BME280;64897;50.816;4.422;2023-04-26T07:19:38;101135.00;;;7.62;60.43
76164;BME280;64897;50.816;4.422;2023-04-26T07:22:25;101138.13;;;7.68;59.94
76164;BME280;64897;50.816;4.422;2023-04-26T07:25:13;101126.03;;;7.50;61.01
76164;BME280;64897;50.816;4.422;2023-04-26T07:28:00;101130.22;;;7.53;60.67
76164;BME280;64897;50.816;4.422;2023-04-26T07:30:47;101122.53;;;7.51;60.37
76164;BME280;64897;50.816;4.422;2023-04-26T07:33:35;101143.69;;;7.61;60.03
76164;BME280;64897;50.816;4.422;2023-04-26T07:36:22;101146.53;;;7.56;60.62
76164;BME280;64897;50.816;4.422;2023-04-26T07:39:10;101138.19;;;7.84;59.85
76164;BME280;64897;50.816;4.422;2023-04-26T07:41:57;101141.72;;;8.00;59.60
76164;BME280;64897;50.816;4.422;2023-04-26T07:44:44;101133.78;;;8.36;58.30
76164;BME280;64897;50.816;4.422;2023-04-26T07:47:30;101135.78;;;8.64;56.71
76164;BME280;64897;50.816;4.422;2023-04-26T07:50:19;101137.41;;;8.97;55.96
76164;BME280;64897;50.816;4.422;2023-04-26T07:53:06;101134.25;;;9.22;54.17
76164;BME280;64897;50.816;4.422;2023-04-26T07:55:53;101132.88;;;9.01;55.16
76164;BME280;64897;50.816;4.422;2023-04-26T07:58:40;101136.28;;;9.17;53.71
76164;BME280;64897;50.816;4.422;2023-04-26T08:01:27;101126.25;;;9.25;52.76
76164;BME280;64897;50.816;4.422;2023-04-26T08:04:16;101131.13;;;9.31;52.96
76164;BME280;64897;50.816;4.422;2023-04-26T08:07:04;101135.38;;;9.63;51.22
76164;BME280;64897;50.816;4.422;2023-04-26T08:09:52;101136.16;;;9.94;49.83
76164;BME280;64897;50.816;4.422;2023-04-26T08:12:39;101128.22;;;10.39;49.82
76164;BME280;64897;50.816;4.422;2023-04-26T08:15:26;101118.16;;;10.33;49.97
76164;BME280;64897;50.816;4.422;2023-04-26T08:18:14;101122.19;;;10.39;49.16
76164;BME280;64897;50.816;4.422;2023-04-26T08:21:01;101120.44;;;10.80;49.53
76164;BME280;64897;50.816;4.422;2023-04-26T08:23:50;101115.50;;;10.75;47.65
76164;BME280;64897;50.816;4.422;2023-04-26T08:26:37;101107.78;;;10.46;49.08
76164;BME280;64897;50.816;4.422;2023-04-26T08:29:26;101120.81;;;10.74;48.99
76164;BME280;64897;50.816;4.422;2023-04-26T08:32:14;101120.28;;;11.10;47.00
76164;BME280;64897;50.816;4.422;2023-04-26T08:35:00;101098.97;;;11.16;46.12
76164;BME280;64897;50.816;4.422;2023-04-26T08:37:48;101105.44;;;11.23;45.69
76164;BME280;64897;50.816;4.422;2023-04-26T08:40:37;101099.81;;;11.29;45.94
76164;BME280;64897;50.816;4.422;2023-04-26T08:43:24;101100.81;;;11.14;46.39
76164;BME280;64897;50.816;4.422;2023-04-26T08:46:14;101109.09;;;10.94;45.40
76164;BME280;64897;50.816;4.422;2023-04-26T08:49:12;101098.56;;;10.95;44.51
76164;BME280;64897;50.816;4.422;2023-04-26T08:52:08;101091.06;;;11.30;43.82
76164;BME280;64897;50.816;4.422;2023-04-26T08:54:57;101089.28;;;11.82;40.59
76164;BME280;64897;50.816;4.422;2023-04-26T08:57:47;101098.53;;;12.13;40.20
76164;BME280;64897;50.816;4.422;2023-04-26T09:00:35;101088.44;;;12.20;40.02
76164;BME280;64897;50.816;4.422;2023-04-26T09:03:22;101081.41;;;12.33;40.03
76164;BME280;64897;50.816;4.422;2023-04-26T09:06:11;101083.47;;;12.89;39.34
76164;BME280;64897;50.816;4.422;2023-04-26T09:09:01;101087.50;;;12.82;38.74
76164;BME280;64897;50.816;4.422;2023-04-26T09:11:56;101090.09;;;13.19;38.68
76164;BME280;64897;50.816;4.422;2023-04-26T09:14:46;101086.66;;;13.29;37.73
76164;BME280;64897;50.816;4.422;2023-04-26T09:17:34;101090.59;;;13.24;36.57
76164;BME280;64897;50.816;4.422;2023-04-26T09:20:23;101086.06;;;14.17;34.76
76164;BME280;64897;50.816;4.422;2023-04-26T09:23:10;101085.97;;;15.06;33.47
76164;BME280;64897;50.816;4.422;2023-04-26T09:26:16;101083.78;;;15.11;33.10
76164;BME280;64897;50.816;4.422;2023-04-26T09:29:13;101083.31;;;14.63;33.90
76164;BME280;64897;50.816;4.422;2023-04-26T09:32:03;101086.53;;;14.56;33.82
76164;BME280;64897;50.816;4.422;2023-04-26T09:34:51;101079.50;;;14.23;34.14
76164;BME280;64897;50.816;4.422;2023-04-26T09:37:38;101083.88;;;14.89;32.53
76164;BME280;64897;50.816;4.422;2023-04-26T09:40:38;101080.53;;;15.19;33.27
76164;BME280;64897;50.816;4.422;2023-04-26T09:43:26;101084.94;;;15.29;32.79
76164;BME280;64897;50.816;4.422;2023-04-26T09:46:21;101089.03;;;14.79;32.74
76164;BME280;64897;50.816;4.422;2023-04-26T09:49:11;101090.38;;;14.52;32.91
76164;BME280;64897;50.816;4.422;2023-04-26T09:52:05;101090.63;;;14.49;33.88
76164;BME280;64897;50.816;4.422;2023-04-26T09:54:54;101081.53;;;15.50;32.71
76164;BME280;64897;50.816;4.422;2023-04-26T09:57:45;101072.91;;;16.19;31.59
76164;BME280;64897;50.816;4.422;2023-04-26T10:00:33;101072.00;;;16.79;30.00
76164;BME280;64897;50.816;4.422;2023-04-26T10:03:22;101067.31;;;17.31;29.06
76164;BME280;64897;50.816;4.422;2023-04-26T10:06:12;101073.69;;;16.10;31.09
76164;BME280;64897;50.816;4.422;2023-04-26T10:09:01;101065.50;;;15.83;30.88
76164;BME280;64897;50.816;4.422;2023-04-26T10:11:49;101068.66;;;15.77;31.92
76164;BME280;64897;50.816;4.422;2023-04-26T10:14:36;101057.28;;;16.67;29.64
76164;BME280;64897;50.816;4.422;2023-04-26T10:17:24;101060.56;;;15.89;31.00
76164;BME280;64897;50.816;4.422;2023-04-26T10:20:13;101063.50;;;16.26;30.65
76164;BME280;64897;50.816;4.422;2023-04-26T10:23:05;101056.63;;;17.32;29.14
76164;BME280;64897;50.816;4.422;2023-04-26T10:25:55;101054.13;;;17.59;28.84
76164;BME280;64897;50.816;4.422;2023-04-26T10:28:54;101056.34;;;17.26;28.66
76164;BME280;64897;50.816;4.422;2023-04-26T10:32:04;101053.31;;;17.21;28.71
76164;BME280;64897;50.816;4.422;2023-04-26T10:35:09;101047.81;;;16.55;30.17
76164;BME280;64897;50.816;4.422;2023-04-26T10:38:10;101041.78;;;16.13;30.25
76164;BME280;64897;50.816;4.422;2023-04-26T10:41:31;101043.59;;;16.13;30.55
76164;BME280;64897;50.816;4.422;2023-04-26T10:44:45;101033.06;;;16.13;30.52
76164;BME280;64897;50.816;4.422;2023-04-26T10:47:33;101028.22;;;16.27;30.08
76164;BME280;64897;50.816;4.422;2023-04-26T10:50:21;101018.09;;;16.82;29.09
76164;BME280;64897;50.816;4.422;2023-04-26T10:53:09;101014.72;;;17.76;27.95
76164;BME280;64897;50.816;4.422;2023-04-26T10:55:57;101012.31;;;17.82;27.78
76164;BME280;64897;50.816;4.422;2023-04-26T10:58:45;101006.72;;;19.12;25.99
76164;BME280;64897;50.816;4.422;2023-04-26T11:01:33;101002.22;;;19.73;24.73
76164;BME280;64897;50.816;4.422;2023-04-26T11:04:23;100992.13;;;20.11;24.36
76164;BME280;64897;50.816;4.422;2023-04-26T11:07:37;100999.00;;;19.01;26.03
76164;BME280;64897;50.816;4.422;2023-04-26T11:10:27;100991.56;;;19.40;24.09
76164;BME280;64897;50.816;4.422;2023-04-26T11:13:14;100996.34;;;18.65;25.41
76164;BME280;64897;50.816;4.422;2023-04-26T11:16:02;101002.41;;;18.75;25.07
76164;BME280;64897;50.816;4.422;2023-04-26T11:18:54;101003.53;;;18.55;24.84
76164;BME280;64897;50.816;4.422;2023-04-26T11:21:40;100992.91;;;18.01;25.18
76164;BME280;64897;50.816;4.422;2023-04-26T11:24:30;100989.47;;;17.91;26.00
76164;BME280;64897;50.816;4.422;2023-04-26T11:27:18;100986.34;;;18.77;24.91
76164;BME280;64897;50.816;4.422;2023-04-26T11:30:07;100991.31;;;19.76;22.58
76164;BME280;64897;50.816;4.422;2023-04-26T11:32:54;100977.56;;;19.81;22.57
76164;BME280;64897;50.816;4.422;2023-04-26T11:35:41;100980.19;;;19.47;22.97
76164;BME280;64897;50.816;4.422;2023-04-26T11:38:28;100981.34;;;18.74;23.62
76164;BME280;64897;50.816;4.422;2023-04-26T11:41:15;100986.44;;;18.40;23.37
76164;BME280;64897;50.816;4.422;2023-04-26T11:44:04;100985.28;;;17.61;24.88
76164;BME280;64897;50.816;4.422;2023-04-26T11:46:52;100976.09;;;18.02;24.51
76164;BME280;64897;50.816;4.422;2023-04-26T11:49:39;100971.69;;;18.65;25.03
76164;BME280;64897;50.816;4.422;2023-04-26T11:52:26;100979.59;;;18.20;24.19
76164;BME280;64897;50.816;4.422;2023-04-26T11:55:13;100975.19;;;17.84;25.09
76164;BME280;64897;50.816;4.422;2023-04-26T11:58:09;100980.41;;;17.47;25.99
76164;BME280;64897;50.816;4.422;2023-04-26T12:00:59;100976.13;;;16.50;26.99
76164;BME280;64897;50.816;4.422;2023-04-26T12:03:49;100987.72;;;16.28;27.20
76164;BME280;64897;50.816;4.422;2023-04-26T12:06:42;100982.53;;;15.36;28.96
76164;BME280;64897;50.816;4.422;2023-04-26T12:09:30;100973.53;;;14.97;29.71
76164;BME280;64897;50.816;4.422;2023-04-26T12:12:17;100985.69;;;15.09;29.95
76164;BME280;64897;50.816;4.422;2023-04-26T12:15:09;100986.13;;;15.14;30.81
76164;BME280;64897;50.816;4.422;2023-04-26T12:17:59;100977.09;;;15.28;30.75
76164;BME280;64897;50.816;4.422;2023-04-26T12:20:47;100978.31;;;15.03;30.16
76164;BME280;64897;50.816;4.422;2023-04-26T12:23:38;100989.75;;;14.81;31.17
76164;BME280;64897;50.816;4.422;2023-04-26T12:26:42;100989.72;;;14.50;31.52
76164;BME280;64897;50.816;4.422;2023-04-26T12:29:30;100990.47;;;13.85;31.93
76164;BME280;64897;50.816;4.422;2023-04-26T12:32:17;100988.03;;;13.49;33.41
76164;BME280;64897;50.816;4.422;2023-04-26T12:35:06;100989.72;;;13.50;33.01
76164;BME280;64897;50.816;4.422;2023-04-26T12:37:52;100985.72;;;13.22;33.96
76164;BME280;64897;50.816;4.422;2023-04-26T12:40:42;100979.91;;;13.06;33.79
76164;BME280;64897;50.816;4.422;2023-04-26T12:43:29;100986.13;;;13.40;32.61
76164;BME280;64897;50.816;4.422;2023-04-26T12:46:16;100984.84;;;13.56;32.76
76164;BME280;64897;50.816;4.422;2023-04-26T12:49:03;100989.34;;;13.43;32.69
76164;BME280;64897;50.816;4.422;2023-04-26T12:51:51;100981.91;;;13.26;33.43
76164;BME280;64897;50.816;4.422;2023-04-26T12:54:39;100976.53;;;13.17;33.90
76164;BME280;64897;50.816;4.422;2023-04-26T12:57:26;100989.75;;;13.15;33.37
76164;BME280;64897;50.816;4.422;2023-04-26T13:00:15;100984.19;;;13.20;33.04
76164;BME280;64897;50.816;4.422;2023-04-26T13:03:02;100983.63;;;13.49;33.59
76164;BME280;64897;50.816;4.422;2023-04-26T13:05:50;100984.00;;;13.67;33.01
76164;BME280;64897;50.816;4.422;2023-04-26T13:08:38;100980.31;;;13.69;33.13
76164;BME280;64897;50.816;4.422;2023-04-26T13:11:26;100985.22;;;13.63;32.86
76164;BME280;64897;50.816;4.422;2023-04-26T13:14:13;100982.06;;;13.47;32.31
76164;BME280;64897;50.816;4.422;2023-04-26T13:17:01;100982.75;;;13.27;32.93
76164;BME280;64897;50.816;4.422;2023-04-26T13:19:49;100988.03;;;13.49;32.90
76164;BME280;64897;50.816;4.422;2023-04-26T13:22:37;100972.72;;;13.32;33.11
76164;BME280;64897;50.816;4.422;2023-04-26T13:25:28;100979.44;;;13.47;33.74
76164;BME280;64897;50.816;4.422;2023-04-26T13:28:15;100978.03;;;13.43;32.58
76164;BME280;64897;50.816;4.422;2023-04-26T13:31:02;100967.47;;;13.32;32.56
76164;BME280;64897;50.816;4.422;2023-04-26T13:33:50;100974.91;;;13.49;32.98
76164;BME280;64897;50.816;4.422;2023-04-26T13:36:37;100968.09;;;13.46;32.88
76164;BME280;64897;50.816;4.422;2023-04-26T13:39:24;100972.91;;;13.52;32.54
76164;BME280;64897;50.816;4.422;2023-04-26T13:42:15;100976.59;;;13.61;31.83
76164;BME280;64897;50.816;4.422;2023-04-26T13:45:02;100981.75;;;13.51;32.41
76164;BME280;64897;50.816;4.422;2023-04-26T13:47:54;100978.94;;;13.31;32.21
76164;BME280;64897;50.816;4.422;2023-04-26T13:50:41;100974.81;;;13.50;32.89
76164;BME280;64897;50.816;4.422;2023-04-26T13:53:28;100974.13;;;13.59;32.24
76164;BME280;64897;50.816;4.422;2023-04-26T13:56:15;100977.13;;;13.77;31.87
76164;BME280;64897;50.816;4.422;2023-04-26T13:59:04;100970.53;;;13.83;32.25
76164;BME280;64897;50.816;4.422;2023-04-26T14:01:51;100970.88;;;13.67;31.70
76164;BME280;64897;50.816;4.422;2023-04-26T14:04:39;100965.53;;;13.68;32.16
76164;BME280;64897;50.816;4.422;2023-04-26T14:07:27;100969.69;;;13.60;31.91
76164;BME280;64897;50.816;4.422;2023-04-26T14:10:14;100963.94;;;13.44;32.61
76164;BME280;64897;50.816;4.422;2023-04-26T14:13:01;100967.59;;;13.19;32.69
76164;BME280;64897;50.816;4.422;2023-04-26T14:15:51;100967.00;;;13.03;32.41
76164;BME280;64897;50.816;4.422;2023-04-26T14:18:39;100953.84;;;13.16;32.79
76164;BME280;64897;50.816;4.422;2023-04-26T14:21:29;100957.94;;;13.20;33.49
76164;BME280;64897;50.816;4.422;2023-04-26T14:24:16;100961.91;;;13.47;32.84
76164;BME280;64897;50.816;4.422;2023-04-26T14:27:04;100954.09;;;13.12;33.67
76164;BME280;64897;50.816;4.422;2023-04-26T14:29:51;100951.28;;;13.03;33.89
76164;BME280;64897;50.816;4.422;2023-04-26T14:32:39;100954.69;;;13.16;34.06
76164;BME280;64897;50.816;4.422;2023-04-26T14:35:27;100955.03;;;13.11;34.10
76164;BME280;64897;50.816;4.422;2023-04-26T14:38:14;100949.34;;;13.29;34.66
76164;BME280;64897;50.816;4.422;2023-04-26T14:41:01;100941.75;;;13.37;33.39
76164;BME280;64897;50.816;4.422;2023-04-26T14:43:49;100947.31;;;13.32;32.90
76164;BME280;64897;50.816;4.422;2023-04-26T14:46:36;100942.75;;;13.12;33.46
76164;BME280;64897;50.816;4.422;2023-04-26T14:49:24;100943.97;;;12.95;33.96